createdAt,value
2018-07-22T00:00:13.666Z,27.8
2018-07-22T00:01:18.975Z,27.8
2018-07-22T00:02:24.454Z,27.8
2018-07-22T00:03:30.509Z,27.8
2018-07-22T00:04:35.705Z,27.8
2018-07-22T00:05:40.930Z,27.8
2018-07-22T00:06:46.511Z,27.8
2018-07-22T00:07:51.412Z,27.8
2018-07-22T00:08:55.714Z,27.8
2018-07-22T00:10:01.179Z,27.8
2018-07-22T00:11:06.039Z,27.7
2018-07-22T00:12:11.193Z,27.8
2018-07-22T00:13:16.906Z,27.8
2018-07-22T00:14:22.334Z,27.8
2018-07-22T00:15:27.852Z,27.8
2018-07-22T00:16:33.022Z,27.8
2018-07-22T00:17:37.914Z,27.8
2018-07-22T00:18:43.626Z,27.8
2018-07-22T00:19:48.859Z,27.8
2018-07-22T00:20:54.067Z,27.7
2018-07-22T00:21:59.409Z,27.7
2018-07-22T00:23:04.043Z,27.7
2018-07-22T00:24:09.197Z,27.7
2018-07-22T00:25:14.400Z,27.7
2018-07-22T00:26:19.548Z,27.7
2018-07-22T00:28:44.823Z,27.7
2018-07-22T00:29:50.256Z,27.7
2018-07-22T00:30:56.067Z,27.7
2018-07-22T00:32:01.015Z,27.7
2018-07-22T00:33:06.187Z,27.7
2018-07-22T00:34:11.591Z,27.7
2018-07-22T00:35:16.474Z,27.7
2018-07-22T00:36:21.902Z,27.7
2018-07-22T00:37:26.902Z,27.7
2018-07-22T00:38:31.515Z,27.7
2018-07-22T00:39:37.449Z,27.7
2018-07-22T00:40:42.611Z,27.7
2018-07-22T00:41:48.065Z,27.7
2018-07-22T00:42:53.065Z,27.7
2018-07-22T00:43:58.737Z,27.7
2018-07-22T00:45:03.921Z,27.7
2018-07-22T00:46:09.360Z,27.7
2018-07-22T00:47:14.801Z,27.7
2018-07-22T00:48:19.669Z,27.7
2018-07-22T00:49:24.759Z,27.7
2018-07-22T00:50:29.715Z,27.7
2018-07-22T00:51:35.301Z,27.7
2018-07-22T00:52:40.487Z,27.7
2018-07-22T00:53:45.060Z,27.7
2018-07-22T00:54:50.472Z,27.7
2018-07-22T00:55:55.926Z,27.7
2018-07-22T00:57:00.548Z,27.7
2018-07-22T00:58:05.529Z,27.7
2018-07-22T00:59:10.484Z,27.7
2018-07-22T01:00:15.969Z,27.7
2018-07-22T01:01:22.155Z,27.7
2018-07-22T01:02:27.033Z,27.7
2018-07-22T01:03:33.100Z,27.7
2018-07-22T01:04:38.852Z,27.7
2018-07-22T01:05:44.614Z,27.7
2018-07-22T01:06:49.481Z,27.7
2018-07-22T01:07:54.361Z,27.7
2018-07-22T01:08:59.518Z,27.7
2018-07-22T01:10:04.780Z,27.7
2018-07-22T01:11:09.391Z,27.7
2018-07-22T01:12:14.895Z,27.7
2018-07-22T01:13:20.977Z,27.7
2018-07-22T01:14:26.182Z,27.7
2018-07-22T01:15:31.577Z,27.7
2018-07-22T01:16:37.019Z,27.7
2018-07-22T01:17:41.885Z,27.7
2018-07-22T01:18:47.433Z,27.7
2018-07-22T01:19:52.887Z,27.7
2018-07-22T01:20:58.305Z,27.7
2018-07-22T01:22:03.702Z,27.7
2018-07-22T01:23:08.579Z,27.7
2018-07-22T01:24:13.738Z,27.7
2018-07-22T01:25:19.518Z,27.7
2018-07-22T01:26:24.689Z,27.7
2018-07-22T01:27:30.556Z,27.7
2018-07-22T01:28:35.708Z,27.7
2018-07-22T01:29:40.895Z,27.7
2018-07-22T01:30:46.325Z,27.7
2018-07-22T01:31:51.586Z,27.7
2018-07-22T01:32:56.802Z,27.7
2018-07-22T01:34:02.349Z,27.7
2018-07-22T01:35:07.215Z,27.7
2018-07-22T01:36:12.655Z,27.7
2018-07-22T01:37:18.144Z,27.7
2018-07-22T01:38:23.284Z,27.7
2018-07-22T01:39:28.294Z,27.7
2018-07-22T01:40:33.503Z,27.7
2018-07-22T01:41:38.991Z,27.7
2018-07-22T01:42:44.195Z,27.7
2018-07-22T01:43:49.694Z,27.7
2018-07-22T01:44:54.860Z,27.7
2018-07-22T01:46:00.582Z,27.7
2018-07-22T01:47:05.175Z,27.7
2018-07-22T01:48:10.378Z,27.7
2018-07-22T01:49:15.830Z,27.7
2018-07-22T01:50:21.004Z,27.7
2018-07-22T01:51:26.673Z,27.7
2018-07-22T01:52:32.110Z,27.7
2018-07-22T01:53:37.605Z,27.7
2018-07-22T01:54:43.433Z,27.6
2018-07-22T01:55:48.652Z,27.7
2018-07-22T01:56:54.088Z,27.7
2018-07-22T01:57:59.200Z,27.7
2018-07-22T01:59:04.067Z,27.6
2018-07-22T02:00:08.993Z,27.7
2018-07-22T02:01:14.685Z,27.7
2018-07-22T02:02:20.196Z,27.7
2018-07-22T02:03:26.007Z,27.7
2018-07-22T02:04:31.149Z,27.7
2018-07-22T02:05:35.510Z,27.7
2018-07-22T02:06:40.977Z,27.7
2018-07-22T02:07:46.634Z,27.7
2018-07-22T02:08:51.625Z,27.7
2018-07-22T02:09:57.321Z,27.7
2018-07-22T02:11:02.758Z,27.7
2018-07-22T02:12:08.210Z,27.7
2018-07-22T02:13:13.898Z,27.6
2018-07-22T02:14:19.043Z,27.6
2018-07-22T02:15:24.304Z,27.6
2018-07-22T02:16:44.102Z,27.7
2018-07-22T02:17:49.287Z,27.7
2018-07-22T02:18:54.443Z,27.7
2018-07-22T02:19:59.876Z,27.6
2018-07-22T02:21:05.075Z,27.6
2018-07-22T02:22:10.236Z,27.6
2018-07-22T02:23:15.460Z,27.6
2018-07-22T02:24:20.339Z,27.6
2018-07-22T02:25:25.922Z,27.6
2018-07-22T02:26:31.355Z,27.6
2018-07-22T02:27:36.092Z,27.6
2018-07-22T02:28:41.523Z,27.6
2018-07-22T02:29:46.991Z,27.6
2018-07-22T02:30:52.533Z,27.6
2018-07-22T02:31:57.418Z,27.6
2018-07-22T02:33:02.329Z,27.7
2018-07-22T02:34:07.833Z,27.6
2018-07-22T02:35:12.992Z,27.6
2018-07-22T02:36:17.965Z,27.6
2018-07-22T02:37:23.017Z,27.6
2018-07-22T02:38:28.204Z,27.6
2018-07-22T02:39:34.173Z,27.6
2018-07-22T02:40:39.060Z,27.7
2018-07-22T02:41:44.504Z,27.6
2018-07-22T02:42:49.701Z,27.7
2018-07-22T02:43:54.885Z,27.6
2018-07-22T02:45:00.338Z,27.6
2018-07-22T02:46:05.789Z,27.6
2018-07-22T02:47:11.223Z,27.6
2018-07-22T02:48:16.385Z,27.6
2018-07-22T02:49:21.118Z,27.6
2018-07-22T02:50:26.273Z,27.6
2018-07-22T02:51:32.032Z,27.6
2018-07-22T02:52:37.662Z,27.6
2018-07-22T02:53:42.556Z,27.6
2018-07-22T02:54:47.961Z,27.6
2018-07-22T02:55:53.438Z,27.6
2018-07-22T02:56:58.943Z,27.6
2018-07-22T02:58:04.210Z,27.6
2018-07-22T02:59:09.419Z,27.6
2018-07-22T03:00:14.897Z,27.6
2018-07-22T03:01:20.320Z,27.6
2018-07-22T03:02:25.597Z,27.6
2018-07-22T03:03:31.223Z,27.6
2018-07-22T03:04:36.135Z,27.6
2018-07-22T03:05:41.528Z,27.6
2018-07-22T03:06:47.205Z,27.6
2018-07-22T03:07:52.651Z,27.6
2018-07-22T03:08:57.919Z,27.6
2018-07-22T03:10:03.363Z,27.6
2018-07-22T03:11:08.509Z,27.6
2018-07-22T03:12:13.985Z,27.6
2018-07-22T03:13:19.669Z,27.6
2018-07-22T03:14:24.837Z,27.6
2018-07-22T03:15:30.256Z,27.6
2018-07-22T03:16:35.416Z,27.6
2018-07-22T03:17:40.568Z,27.6
2018-07-22T03:18:46.193Z,27.6
2018-07-22T03:19:51.679Z,27.6
2018-07-22T03:20:56.823Z,27.6
2018-07-22T03:22:02.279Z,27.6
2018-07-22T03:23:07.199Z,27.6
2018-07-22T03:24:12.635Z,27.6
2018-07-22T03:25:18.164Z,27.6
2018-07-22T03:26:23.325Z,27.6
2018-07-22T03:27:28.965Z,27.6
2018-07-22T03:28:34.392Z,27.6
2018-07-22T03:29:38.981Z,27.6
2018-07-22T03:30:44.661Z,27.6
2018-07-22T03:31:49.817Z,27.6
2018-07-22T03:32:55.313Z,27.6
2018-07-22T03:34:01.153Z,27.6
2018-07-22T03:35:06.047Z,27.6
2018-07-22T03:36:11.477Z,27.6
2018-07-22T03:37:17.222Z,27.6
2018-07-22T03:38:22.780Z,27.6
2018-07-22T03:39:27.949Z,27.6
2018-07-22T03:40:33.383Z,27.6
2018-07-22T03:41:38.529Z,27.6
2018-07-22T03:42:43.965Z,27.6
2018-07-22T03:43:49.117Z,27.6
2018-07-22T03:44:54.546Z,27.6
2018-07-22T03:46:00.001Z,27.6
2018-07-22T03:47:04.939Z,27.6
2018-07-22T03:48:09.526Z,27.6
2018-07-22T03:49:15.120Z,27.6
2018-07-22T03:50:20.278Z,27.6
2018-07-22T03:51:25.976Z,27.6
2018-07-22T03:52:31.474Z,27.6
2018-07-22T03:53:36.349Z,27.6
2018-07-22T03:54:42.088Z,27.5
2018-07-22T03:55:46.696Z,27.6
2018-07-22T03:56:51.625Z,27.6
2018-07-22T03:57:56.852Z,27.5
2018-07-22T03:59:02.333Z,27.6
2018-07-22T04:00:07.501Z,27.6
2018-07-22T04:01:12.714Z,27.6
2018-07-22T04:02:17.869Z,27.6
2018-07-22T04:03:23.361Z,27.6
2018-07-22T04:04:43.939Z,27.6
2018-07-22T04:05:48.518Z,27.6
2018-07-22T04:06:54.360Z,27.6
2018-07-22T04:08:00.172Z,27.6
2018-07-22T04:09:05.648Z,27.6
2018-07-22T04:10:10.766Z,27.6
2018-07-22T04:11:16.249Z,27.6
2018-07-22T04:12:21.678Z,27.6
2018-07-22T04:13:26.986Z,27.6
2018-07-22T04:14:32.441Z,27.6
2018-07-22T04:15:38.199Z,27.6
2018-07-22T04:16:43.726Z,27.6
2018-07-22T04:17:49.166Z,27.6
2018-07-22T04:18:54.285Z,27.6
2018-07-22T04:19:59.718Z,27.6
2018-07-22T04:21:04.943Z,27.6
2018-07-22T04:22:10.556Z,27.6
2018-07-22T04:23:15.712Z,27.6
2018-07-22T04:24:21.174Z,27.5
2018-07-22T04:25:27.209Z,27.6
2018-07-22T04:26:32.353Z,27.6
2018-07-22T04:27:38.067Z,27.5
2018-07-22T04:28:43.540Z,27.6
2018-07-22T04:29:48.972Z,27.6
2018-07-22T04:30:54.194Z,27.6
2018-07-22T04:31:59.722Z,27.6
2018-07-22T04:33:04.303Z,27.6
2018-07-22T04:34:08.711Z,27.6
2018-07-22T04:35:13.890Z,27.6
2018-07-22T04:36:19.111Z,27.6
2018-07-22T04:37:23.694Z,27.6
2018-07-22T04:38:29.146Z,27.6
2018-07-22T04:39:35.052Z,27.6
2018-07-22T04:40:39.720Z,27.6
2018-07-22T04:41:44.576Z,27.5
2018-07-22T04:42:50.504Z,27.6
2018-07-22T04:43:55.401Z,27.6
2018-07-22T04:45:00.876Z,27.6
2018-07-22T04:46:05.500Z,27.6
2018-07-22T04:47:10.939Z,27.6
2018-07-22T04:48:16.100Z,27.6
2018-07-22T04:49:21.549Z,27.6
2018-07-22T04:50:26.978Z,27.6
2018-07-22T04:51:32.549Z,27.6
2018-07-22T04:52:37.796Z,27.6
2018-07-22T04:53:42.672Z,27.6
2018-07-22T04:54:47.869Z,27.6
2018-07-22T04:55:53.062Z,27.6
2018-07-22T04:56:57.922Z,27.6
2018-07-22T04:58:03.624Z,27.6
2018-07-22T04:59:08.784Z,27.6
2018-07-22T05:00:13.944Z,27.6
2018-07-22T05:01:19.405Z,27.6
2018-07-22T05:02:24.268Z,27.6
2018-07-22T05:03:30.001Z,27.6
2018-07-22T05:04:35.217Z,27.6
2018-07-22T05:05:40.372Z,27.6
2018-07-22T05:06:46.185Z,27.6
2018-07-22T05:07:51.616Z,27.6
2018-07-22T05:08:57.056Z,27.6
2018-07-22T05:10:02.485Z,27.6
2018-07-22T05:11:06.796Z,27.6
2018-07-22T05:12:12.274Z,27.6
2018-07-22T05:13:17.389Z,27.6
2018-07-22T05:14:22.844Z,27.6
2018-07-22T05:15:28.406Z,27.6
2018-07-22T05:16:33.322Z,27.6
2018-07-22T05:17:38.560Z,27.6
2018-07-22T05:18:44.019Z,27.6
2018-07-22T05:19:49.446Z,27.6
2018-07-22T05:20:54.339Z,27.6
2018-07-22T05:22:00.080Z,27.6
2018-07-22T05:23:04.948Z,27.6
2018-07-22T05:24:10.208Z,27.6
2018-07-22T05:25:15.749Z,27.6
2018-07-22T05:26:20.905Z,27.6
2018-07-22T05:27:26.872Z,27.6
2018-07-22T05:28:32.028Z,27.6
2018-07-22T05:29:37.170Z,27.6
2018-07-22T05:30:42.677Z,27.6
2018-07-22T05:31:47.830Z,27.6
2018-07-22T05:32:52.782Z,27.6
2018-07-22T05:33:58.510Z,27.6
2018-07-22T05:35:04.024Z,27.6
2018-07-22T05:36:08.425Z,27.6
2018-07-22T05:37:14.262Z,27.6
2018-07-22T05:38:19.447Z,27.6
2018-07-22T05:40:44.752Z,27.6
2018-07-22T05:41:49.931Z,27.6
2018-07-22T05:42:55.110Z,27.6
2018-07-22T05:44:00.540Z,27.6
2018-07-22T05:45:05.698Z,27.6
2018-07-22T05:46:11.222Z,27.6
2018-07-22T05:47:16.179Z,27.6
2018-07-22T05:48:21.613Z,27.6
2018-07-22T05:49:27.708Z,27.6
2018-07-22T05:50:33.193Z,27.6
2018-07-22T05:51:38.790Z,27.6
2018-07-22T05:52:43.933Z,27.6
2018-07-22T05:53:49.547Z,27.6
2018-07-22T05:54:54.687Z,27.6
2018-07-22T05:55:59.582Z,27.6
2018-07-22T05:57:04.757Z,27.6
2018-07-22T05:58:09.879Z,27.6
2018-07-22T05:59:15.344Z,27.6
2018-07-22T06:00:20.831Z,27.6
2018-07-22T06:01:26.719Z,27.6
2018-07-22T06:02:31.612Z,27.6
2018-07-22T06:03:36.820Z,27.6
2018-07-22T06:04:42.256Z,27.6
2018-07-22T06:05:47.407Z,27.6
2018-07-22T06:06:52.369Z,27.6
2018-07-22T06:07:57.262Z,27.6
2018-07-22T06:09:02.430Z,27.6
2018-07-22T06:10:07.998Z,27.6
2018-07-22T06:11:12.878Z,27.6
2018-07-22T06:12:18.104Z,27.6
2018-07-22T06:13:23.846Z,27.6
2018-07-22T06:14:29.005Z,27.6
2018-07-22T06:15:34.299Z,27.6
2018-07-22T06:16:39.811Z,27.7
2018-07-22T06:17:45.000Z,27.6
2018-07-22T06:18:50.032Z,27.6
2018-07-22T06:19:55.226Z,27.7
2018-07-22T06:21:00.668Z,27.6
2018-07-22T06:22:06.143Z,27.7
2018-07-22T06:23:11.370Z,27.7
2018-07-22T06:24:16.528Z,27.7
2018-07-22T06:25:21.774Z,27.7
2018-07-22T06:26:26.927Z,27.7
2018-07-22T06:27:32.957Z,27.7
2018-07-22T06:28:37.629Z,27.7
2018-07-22T06:29:42.782Z,27.7
2018-07-22T06:30:48.563Z,27.7
2018-07-22T06:31:53.993Z,27.7
2018-07-22T06:32:59.213Z,27.7
2018-07-22T06:34:04.147Z,27.7
2018-07-22T06:35:08.769Z,27.7
2018-07-22T06:36:14.360Z,27.7
2018-07-22T06:37:19.244Z,27.7
2018-07-22T06:38:24.438Z,27.7
2018-07-22T06:39:30.004Z,27.7
2018-07-22T06:40:35.443Z,27.7
2018-07-22T06:41:40.897Z,27.7
2018-07-22T06:42:46.574Z,27.7
2018-07-22T06:43:51.719Z,27.8
2018-07-22T06:44:56.869Z,27.8
2018-07-22T06:46:02.342Z,27.7
2018-07-22T06:47:06.395Z,27.7
2018-07-22T06:48:11.602Z,27.7
2018-07-22T06:49:16.729Z,27.8
2018-07-22T06:50:21.937Z,27.8
2018-07-22T06:51:27.237Z,27.8
2018-07-22T06:52:31.929Z,27.8
2018-07-22T06:53:36.866Z,27.8
2018-07-22T06:54:43.045Z,27.8
2018-07-22T06:55:48.215Z,27.8
2018-07-22T06:56:52.867Z,27.8
2018-07-22T06:57:58.389Z,27.8
2018-07-22T06:59:03.547Z,27.8
2018-07-22T07:00:08.420Z,27.8
2018-07-22T07:01:13.993Z,27.8
2018-07-22T07:02:19.254Z,27.8
2018-07-22T07:04:44.778Z,27.8
2018-07-22T07:05:50.254Z,27.8
2018-07-22T07:06:55.448Z,27.8
2018-07-22T07:08:00.923Z,27.8
2018-07-22T07:09:05.590Z,27.8
2018-07-22T07:10:11.273Z,27.8
2018-07-22T07:11:16.775Z,27.8
2018-07-22T07:12:21.428Z,27.8
2018-07-22T07:13:27.110Z,27.8
2018-07-22T07:14:32.304Z,27.8
2018-07-22T07:15:37.877Z,27.8
2018-07-22T07:16:42.744Z,27.8
2018-07-22T07:17:47.962Z,27.8
2018-07-22T07:18:53.331Z,27.8
2018-07-22T07:19:58.759Z,27.8
2018-07-22T07:21:03.442Z,27.8
2018-07-22T07:22:08.612Z,27.8
2018-07-22T07:23:13.564Z,27.8
2018-07-22T07:24:18.718Z,27.8
2018-07-22T07:25:24.172Z,27.8
2018-07-22T07:26:29.327Z,27.8
2018-07-22T07:27:35.183Z,27.8
2018-07-22T07:28:40.166Z,27.8
2018-07-22T07:29:45.317Z,27.8
2018-07-22T07:30:50.837Z,27.8
2018-07-22T07:31:55.974Z,27.8
2018-07-22T07:33:00.559Z,27.8
2018-07-22T07:34:05.158Z,27.8
2018-07-22T07:35:09.802Z,27.8
2018-07-22T07:36:15.259Z,27.8
2018-07-22T07:37:20.671Z,27.8
2018-07-22T07:38:25.863Z,27.8
2018-07-22T07:39:31.730Z,27.8
2018-07-22T07:40:37.159Z,27.9
2018-07-22T07:41:42.441Z,27.8
2018-07-22T07:42:48.280Z,27.8
2018-07-22T07:43:53.716Z,27.8
2018-07-22T07:44:59.147Z,27.8
2018-07-22T07:46:04.271Z,27.8
2018-07-22T07:47:09.418Z,27.8
2018-07-22T07:48:14.403Z,27.8
2018-07-22T07:49:19.655Z,27.9
2018-07-22T07:50:24.516Z,27.9
2018-07-22T07:51:30.529Z,27.9
2018-07-22T07:52:35.961Z,27.9
2018-07-22T07:53:41.124Z,27.9
2018-07-22T07:54:46.419Z,27.9
2018-07-22T07:55:51.620Z,27.9
2018-07-22T07:56:56.769Z,27.9
2018-07-22T07:58:02.007Z,27.9
2018-07-22T07:59:06.633Z,27.9
2018-07-22T08:00:12.071Z,27.9
2018-07-22T08:01:17.826Z,27.9
2018-07-22T08:02:23.071Z,27.9
2018-07-22T08:03:28.486Z,27.9
2018-07-22T08:04:33.369Z,27.9
2018-07-22T08:05:38.752Z,28
2018-07-22T08:06:44.207Z,27.9
2018-07-22T08:07:49.355Z,27.9
2018-07-22T08:08:54.284Z,28
2018-07-22T08:10:00.116Z,28
2018-07-22T08:11:04.438Z,28
2018-07-22T08:12:09.318Z,27.9
2018-07-22T08:13:14.446Z,28
2018-07-22T08:14:19.689Z,28
2018-07-22T08:15:25.341Z,28
2018-07-22T08:16:30.773Z,28
2018-07-22T08:17:35.938Z,28
2018-07-22T08:18:41.181Z,28
2018-07-22T08:19:46.452Z,28
2018-07-22T08:20:51.901Z,28
2018-07-22T08:21:57.119Z,28
2018-07-22T08:23:03.218Z,28
2018-07-22T08:24:08.416Z,28
2018-07-22T08:25:13.836Z,28
2018-07-22T08:26:19.269Z,28
2018-07-22T08:27:24.471Z,28
2018-07-22T08:28:44.812Z,28.1
2018-07-22T08:29:49.969Z,28
2018-07-22T08:30:55.367Z,28.1
2018-07-22T08:32:00.224Z,28.1
2018-07-22T08:33:05.189Z,28.1
2018-07-22T08:34:10.633Z,28.1
2018-07-22T08:35:15.548Z,28.1
2018-07-22T08:36:20.737Z,28.1
2018-07-22T08:37:26.239Z,28.1
2018-07-22T08:38:31.103Z,28.1
2018-07-22T08:39:36.039Z,28.1
2018-07-22T08:40:40.920Z,28.1
2018-07-22T08:41:45.793Z,28.1
2018-07-22T08:42:51.113Z,28.1
2018-07-22T08:43:55.413Z,28.1
2018-07-22T08:45:00.662Z,28.2
2018-07-22T08:46:05.505Z,28.2
2018-07-22T08:47:11.029Z,28.1
2018-07-22T08:48:16.467Z,28.2
2018-07-22T08:49:21.312Z,28.2
2018-07-22T08:50:26.477Z,28.2
2018-07-22T08:51:32.242Z,28.2
2018-07-22T08:52:37.750Z,28.2
2018-07-22T08:53:43.301Z,28.2
2018-07-22T08:54:48.603Z,28.2
2018-07-22T08:55:54.046Z,28.2
2018-07-22T08:56:59.404Z,28.2
2018-07-22T08:58:04.600Z,28.2
2018-07-22T08:59:09.537Z,28.2
2018-07-22T09:00:14.697Z,28.2
2018-07-22T09:01:20.047Z,28.2
2018-07-22T09:02:25.550Z,28.3
2018-07-22T09:03:30.754Z,28.3
2018-07-22T09:04:36.006Z,28.3
2018-07-22T09:05:41.160Z,28.3
2018-07-22T09:06:46.752Z,28.3
2018-07-22T09:07:51.979Z,28.3
2018-07-22T09:08:56.963Z,28.3
2018-07-22T09:10:02.685Z,28.3
2018-07-22T09:11:07.284Z,28.3
2018-07-22T09:12:12.219Z,28.3
2018-07-22T09:13:17.539Z,28.3
2018-07-22T09:14:22.740Z,28.3
2018-07-22T09:15:27.866Z,28.3
2018-07-22T09:16:33.298Z,28.3
2018-07-22T09:17:38.762Z,28.4
2018-07-22T09:18:44.706Z,28.4
2018-07-22T09:19:49.911Z,28.4
2018-07-22T09:20:55.371Z,28.3
2018-07-22T09:22:01.207Z,28.4
2018-07-22T09:23:06.118Z,28.4
2018-07-22T09:24:11.604Z,28.4
2018-07-22T09:25:17.100Z,28.4
2018-07-22T09:26:22.044Z,28.4
2018-07-22T09:27:28.073Z,28.4
2018-07-22T09:28:32.946Z,28.4
2018-07-22T09:29:38.425Z,28.4
2018-07-22T09:30:43.816Z,28.5
2018-07-22T09:31:48.958Z,28.5
2018-07-22T09:32:54.402Z,28.5
2018-07-22T09:34:00.131Z,28.5
2018-07-22T09:35:04.451Z,28.5
2018-07-22T09:36:09.753Z,28.5
2018-07-22T09:37:16.136Z,28.5
2018-07-22T09:38:20.999Z,28.5
2018-07-22T09:39:26.175Z,28.5
2018-07-22T09:40:31.622Z,28.5
2018-07-22T09:41:37.130Z,28.5
2018-07-22T09:42:42.539Z,28.5
2018-07-22T09:43:47.413Z,28.5
2018-07-22T09:44:52.902Z,28.5
2018-07-22T09:45:58.137Z,28.5
2018-07-22T09:47:03.049Z,28.5
2018-07-22T09:48:07.669Z,28.6
2018-07-22T09:49:13.412Z,28.6
2018-07-22T09:50:18.559Z,28.6
2018-07-22T09:51:23.426Z,28.6
2018-07-22T09:52:43.317Z,28.6
2018-07-22T09:53:48.934Z,28.6
2018-07-22T09:54:54.372Z,28.6
2018-07-22T09:55:59.518Z,28.6
2018-07-22T09:57:04.403Z,28.6
2018-07-22T09:58:09.840Z,28.6
2018-07-22T09:59:15.464Z,28.6
2018-07-22T10:00:21.324Z,28.6
2018-07-22T10:01:27.181Z,28.6
2018-07-22T10:02:32.325Z,28.6
2018-07-22T10:03:37.509Z,28.6
2018-07-22T10:04:42.969Z,28.6
2018-07-22T10:05:48.583Z,28.6
2018-07-22T10:06:54.382Z,28.7
2018-07-22T10:07:59.532Z,28.6
2018-07-22T10:09:04.478Z,28.7
2018-07-22T10:10:09.683Z,28.7
2018-07-22T10:11:14.938Z,28.7
2018-07-22T10:12:20.443Z,28.7
2018-07-22T10:13:26.268Z,28.7
2018-07-22T10:14:31.587Z,28.7
2018-07-22T10:15:38.013Z,28.7
2018-07-22T10:16:43.160Z,28.7
2018-07-22T10:17:48.661Z,28.7
2018-07-22T10:18:54.076Z,28.7
2018-07-22T10:19:58.953Z,28.8
2018-07-22T10:21:04.159Z,28.8
2018-07-22T10:22:09.284Z,28.8
2018-07-22T10:23:14.726Z,28.8
2018-07-22T10:24:20.031Z,28.7
2018-07-22T10:25:39.557Z,28.7
2018-07-22T10:26:44.751Z,28.8
2018-07-22T10:27:49.932Z,28.8
2018-07-22T10:28:55.443Z,28.8
2018-07-22T10:30:00.915Z,28.8
2018-07-22T10:31:06.359Z,28.8
2018-07-22T10:32:11.545Z,28.8
2018-07-22T10:33:16.972Z,28.8
2018-07-22T10:34:22.767Z,28.8
2018-07-22T10:35:27.649Z,28.8
2018-07-22T10:36:32.504Z,28.8
2018-07-22T10:37:37.658Z,28.8
2018-07-22T10:38:42.801Z,28.9
2018-07-22T10:39:48.278Z,28.9
2018-07-22T10:40:53.140Z,28.9
2018-07-22T10:41:59.138Z,28.9
2018-07-22T10:43:04.355Z,28.9
2018-07-22T10:44:09.244Z,28.9
2018-07-22T10:45:14.845Z,28.9
2018-07-22T10:46:20.608Z,28.9
2018-07-22T10:47:25.755Z,28.9
2018-07-22T10:48:31.046Z,28.9
2018-07-22T10:49:36.226Z,28.9
2018-07-22T10:50:41.130Z,29
2018-07-22T10:51:46.954Z,29
2018-07-22T10:52:52.387Z,29
2018-07-22T10:53:57.548Z,29
2018-07-22T10:55:03.050Z,29
2018-07-22T10:56:07.701Z,29
2018-07-22T10:57:12.632Z,29
2018-07-22T10:58:18.174Z,29
2018-07-22T10:59:23.675Z,29
2018-07-22T11:00:28.848Z,29
2018-07-22T11:01:34.085Z,29
2018-07-22T11:02:39.263Z,29
2018-07-22T11:03:44.949Z,29
2018-07-22T11:04:49.936Z,29
2018-07-22T11:05:55.084Z,29
2018-07-22T11:07:00.810Z,29
2018-07-22T11:08:06.570Z,29
2018-07-22T11:09:11.714Z,29
2018-07-22T11:10:16.927Z,29.1
2018-07-22T11:11:22.437Z,29.1
2018-07-22T11:12:28.002Z,29.1
2018-07-22T11:13:33.633Z,29.1
2018-07-22T11:14:38.845Z,29.1
2018-07-22T11:15:45.446Z,29.1
2018-07-22T11:16:49.770Z,29.1
2018-07-22T11:17:55.437Z,29.1
2018-07-22T11:19:00.868Z,29.1
2018-07-22T11:20:05.174Z,29.1
2018-07-22T11:21:10.581Z,29.1
2018-07-22T11:22:16.280Z,29.2
2018-07-22T11:23:21.764Z,29.1
2018-07-22T11:24:27.213Z,29.1
2018-07-22T11:25:32.775Z,29.1
2018-07-22T11:26:37.650Z,29.1
2018-07-22T11:27:43.483Z,29.2
2018-07-22T11:28:48.476Z,29.2
2018-07-22T11:29:54.767Z,29.2
2018-07-22T11:31:00.485Z,29.2
2018-07-22T11:32:05.817Z,29.2
2018-07-22T11:33:10.968Z,29.2
2018-07-22T11:34:16.655Z,29.2
2018-07-22T11:35:21.866Z,29.2
2018-07-22T11:36:27.315Z,29.2
2018-07-22T11:37:32.464Z,29.2
2018-07-22T11:38:37.621Z,29.2
2018-07-22T11:39:43.471Z,29.2
2018-07-22T11:40:48.782Z,29.2
2018-07-22T11:41:53.932Z,29.2
2018-07-22T11:42:59.088Z,29.2
2018-07-22T11:44:04.243Z,29.2
2018-07-22T11:45:09.149Z,29.2
2018-07-22T11:46:14.454Z,29.2
2018-07-22T11:47:19.911Z,29.3
2018-07-22T11:48:25.593Z,29.3
2018-07-22T11:49:30.460Z,29.3
2018-07-22T11:50:35.998Z,29.3
2018-07-22T11:51:42.017Z,29.3
2018-07-22T11:52:46.904Z,29.3
2018-07-22T11:53:52.337Z,29.3
2018-07-22T11:54:58.162Z,29.3
2018-07-22T11:56:03.301Z,29.3
2018-07-22T11:57:08.178Z,29.3
2018-07-22T11:58:13.756Z,29.3
2018-07-22T11:59:18.983Z,29.3
2018-07-22T12:00:23.839Z,29.4
2018-07-22T12:01:29.812Z,29.3
2018-07-22T12:02:34.944Z,29.4
2018-07-22T12:03:40.452Z,29.4
2018-07-22T12:04:45.313Z,29.4
2018-07-22T12:05:50.205Z,29.4
2018-07-22T12:06:55.958Z,29.4
2018-07-22T12:08:00.855Z,29.4
2018-07-22T12:09:05.441Z,29.4
2018-07-22T12:10:11.279Z,29.4
2018-07-22T12:11:16.219Z,29.4
2018-07-22T12:12:21.109Z,29.4
2018-07-22T12:13:27.277Z,29.5
2018-07-22T12:14:32.820Z,29.5
2018-07-22T12:15:38.349Z,29.5
2018-07-22T12:16:43.512Z,29.5
2018-07-22T12:17:48.981Z,29.5
2018-07-22T12:18:54.966Z,29.5
2018-07-22T12:20:00.130Z,29.5
2018-07-22T12:21:05.080Z,29.5
2018-07-22T12:22:10.487Z,29.6
2018-07-22T12:23:15.640Z,29.6
2018-07-22T12:24:20.610Z,29.6
2018-07-22T12:25:26.396Z,29.6
2018-07-22T12:26:31.266Z,29.6
2018-07-22T12:27:36.403Z,29.6
2018-07-22T12:28:41.280Z,29.6
2018-07-22T12:29:46.454Z,29.6
2018-07-22T12:30:51.707Z,29.6
2018-07-22T12:31:57.146Z,29.5
2018-07-22T12:33:02.305Z,29.5
2018-07-22T12:34:07.582Z,29.6
2018-07-22T12:35:13.114Z,29.5
2018-07-22T12:36:18.592Z,29.6
2018-07-22T12:37:23.791Z,29.6
2018-07-22T12:38:29.225Z,29.6
2018-07-22T12:39:34.987Z,29.6
2018-07-22T12:40:40.309Z,29.6
2018-07-22T12:41:45.660Z,29.6
2018-07-22T12:42:51.352Z,29.6
2018-07-22T12:43:56.624Z,29.6
2018-07-22T12:45:01.869Z,29.6
2018-07-22T12:46:07.583Z,29.6
2018-07-22T12:47:13.082Z,29.6
2018-07-22T12:48:17.666Z,29.6
2018-07-22T12:49:23.405Z,29.6
2018-07-22T12:50:28.429Z,29.6
2018-07-22T12:51:34.342Z,29.6
2018-07-22T12:52:39.487Z,29.6
2018-07-22T12:53:44.764Z,29.6
2018-07-22T12:54:50.296Z,29.6
2018-07-22T12:55:54.884Z,29.6
2018-07-22T12:57:00.141Z,29.7
2018-07-22T12:58:05.796Z,29.7
2018-07-22T12:59:11.241Z,29.7
2018-07-22T13:00:16.732Z,29.7
2018-07-22T13:01:22.474Z,29.6
2018-07-22T13:02:27.332Z,29.7
2018-07-22T13:03:32.387Z,29.7
2018-07-22T13:04:37.580Z,29.7
2018-07-22T13:05:42.812Z,29.7
2018-07-22T13:06:48.248Z,29.7
2018-07-22T13:07:53.964Z,29.7
2018-07-22T13:08:59.439Z,29.6
2018-07-22T13:10:04.989Z,29.6
2018-07-22T13:11:10.426Z,29.6
2018-07-22T13:12:15.581Z,29.7
2018-07-22T13:13:21.034Z,29.7
2018-07-22T13:14:26.239Z,29.6
2018-07-22T13:15:31.543Z,29.6
2018-07-22T13:16:35.914Z,29.7
2018-07-22T13:17:40.782Z,29.7
2018-07-22T13:18:46.355Z,29.7
2018-07-22T13:19:51.992Z,29.6
2018-07-22T13:20:57.422Z,29.7
2018-07-22T13:22:03.355Z,29.7
2018-07-22T13:23:08.311Z,29.7
2018-07-22T13:24:13.467Z,29.7
2018-07-22T13:25:18.658Z,29.7
2018-07-22T13:26:23.880Z,29.7
2018-07-22T13:27:29.329Z,29.7
2018-07-22T13:28:35.253Z,29.7
2018-07-22T13:29:41.005Z,29.7
2018-07-22T13:30:46.714Z,29.7
2018-07-22T13:31:51.898Z,29.7
2018-07-22T13:32:57.403Z,29.7
2018-07-22T13:34:02.909Z,29.7
2018-07-22T13:35:08.073Z,29.7
2018-07-22T13:36:13.306Z,29.7
2018-07-22T13:37:19.041Z,29.7
2018-07-22T13:38:24.283Z,29.7
2018-07-22T13:39:30.103Z,29.7
2018-07-22T13:40:35.078Z,29.7
2018-07-22T13:41:40.235Z,29.7
2018-07-22T13:42:46.018Z,29.7
2018-07-22T13:43:51.476Z,29.7
2018-07-22T13:44:56.644Z,29.7
2018-07-22T13:46:01.512Z,29.7
2018-07-22T13:47:06.394Z,29.7
2018-07-22T13:48:11.833Z,29.7
2018-07-22T13:49:17.521Z,29.7
2018-07-22T13:50:23.269Z,29.7
2018-07-22T13:51:29.099Z,29.7
2018-07-22T13:52:34.323Z,29.7
2018-07-22T13:53:39.263Z,29.7
2018-07-22T13:54:44.813Z,29.7
2018-07-22T13:55:50.246Z,29.7
2018-07-22T13:56:55.784Z,29.7
2018-07-22T13:58:01.287Z,29.7
2018-07-22T13:59:05.906Z,29.7
2018-07-22T14:00:11.110Z,29.7
2018-07-22T14:01:16.552Z,29.7
2018-07-22T14:02:21.702Z,29.7
2018-07-22T14:03:27.600Z,29.7
2018-07-22T14:04:32.765Z,29.7
2018-07-22T14:05:38.198Z,29.7
2018-07-22T14:06:43.928Z,29.7
2018-07-22T14:07:48.825Z,29.8
2018-07-22T14:08:53.983Z,29.8
2018-07-22T14:09:59.189Z,29.7
2018-07-22T14:11:04.434Z,29.8
2018-07-22T14:12:09.065Z,29.8
2018-07-22T14:13:14.567Z,29.8
2018-07-22T14:14:19.802Z,29.8
2018-07-22T14:15:25.370Z,29.8
2018-07-22T14:16:31.325Z,29.8
2018-07-22T14:17:36.447Z,29.8
2018-07-22T14:18:41.852Z,29.8
2018-07-22T14:19:47.092Z,29.8
2018-07-22T14:20:52.522Z,29.8
2018-07-22T14:21:58.307Z,29.8
2018-07-22T14:23:03.533Z,29.8
2018-07-22T14:24:08.998Z,29.8
2018-07-22T14:25:14.413Z,29.7
2018-07-22T14:26:19.907Z,29.7
2018-07-22T14:27:24.500Z,29.7
2018-07-22T14:28:45.168Z,29.8
2018-07-22T14:29:50.602Z,29.8
2018-07-22T14:30:56.293Z,29.8
2018-07-22T14:32:01.482Z,29.8
2018-07-22T14:33:06.647Z,29.8
2018-07-22T14:34:12.168Z,29.8
2018-07-22T14:35:17.668Z,29.8
2018-07-22T14:36:22.840Z,29.8